sensor_id;sensor_type;location;lat;lon;timestamp;pressure;altitude;pressure_sealevel;temperature
20848;BMP180;10584;50.854;12.902;2023-06-14T00:02:21;98056.00;;;10.80
20848;BMP180;10584;50.854;12.902;2023-06-14T00:07:43;98055.00;;;10.70
20848;BMP180;10584;50.854;12.902;2023-06-14T00:13:05;98048.00;;;10.60
20848;BMP180;10584;50.854;12.902;2023-06-14T00:18:26;98053.00;;;10.60
20848;BMP180;10584;50.854;12.902;2023-06-14T00:23:50;98051.00;;;10.40
20848;BMP180;10584;50.854;12.902;2023-06-14T00:29:12;98058.00;;;10.40
20848;BMP180;10584;50.854;12.902;2023-06-14T00:34:34;98057.00;;;10.30
20848;BMP180;10584;50.854;12.902;2023-06-14T00:39:55;98058.00;;;10.20
20848;BMP180;10584;50.854;12.902;2023-06-14T00:45:17;98044.00;;;10.10
20848;BMP180;10584;50.854;12.902;2023-06-14T00:50:38;98050.00;;;10.00
20848;BMP180;10584;50.854;12.902;2023-06-14T00:56:02;98046.00;;;9.90
20848;BMP180;10584;50.854;12.902;2023-06-14T01:01:24;98047.00;;;9.80
20848;BMP180;10584;50.854;12.902;2023-06-14T01:06:58;98056.00;;;9.70
20848;BMP180;10584;50.854;12.902;2023-06-14T01:12:29;98040.00;;;9.60
20848;BMP180;10584;50.854;12.902;2023-06-14T01:17:54;98040.00;;;9.50
20848;BMP180;10584;50.854;12.902;2023-06-14T01:23:24;98039.00;;;9.40
20848;BMP180;10584;50.854;12.902;2023-06-14T01:28:56;98035.00;;;9.30
20848;BMP180;10584;50.854;12.902;2023-06-14T01:34:20;98042.00;;;9.20
20848;BMP180;10584;50.854;12.902;2023-06-14T01:39:45;98035.00;;;9.10
20848;BMP180;10584;50.854;12.902;2023-06-14T01:45:07;98031.00;;;9.00
20848;BMP180;10584;50.854;12.902;2023-06-14T01:50:30;98035.00;;;8.90
20848;BMP180;10584;50.854;12.902;2023-06-14T01:55:52;98032.00;;;8.80
20848;BMP180;10584;50.854;12.902;2023-06-14T02:01:15;98032.00;;;8.70
20848;BMP180;10584;50.854;12.902;2023-06-14T02:06:39;98036.00;;;8.60
20848;BMP180;10584;50.854;12.902;2023-06-14T02:12:01;98037.00;;;8.50
20848;BMP180;10584;50.854;12.902;2023-06-14T02:17:23;98031.00;;;8.40
20848;BMP180;10584;50.854;12.902;2023-06-14T02:22:45;98046.00;;;8.40
20848;BMP180;10584;50.854;12.902;2023-06-14T02:28:06;98041.00;;;8.30
20848;BMP180;10584;50.854;12.902;2023-06-14T02:33:28;98038.00;;;8.20
20848;BMP180;10584;50.854;12.902;2023-06-14T02:38:50;98051.00;;;8.10
20848;BMP180;10584;50.854;12.902;2023-06-14T02:44:12;98046.00;;;8.10
20848;BMP180;10584;50.854;12.902;2023-06-14T02:49:34;98049.00;;;8.00
20848;BMP180;10584;50.854;12.902;2023-06-14T02:54:56;98056.00;;;7.90
20848;BMP180;10584;50.854;12.902;2023-06-14T03:00:18;98058.00;;;7.80
20848;BMP180;10584;50.854;12.902;2023-06-14T03:05:46;98050.00;;;7.70
20848;BMP180;10584;50.854;12.902;2023-06-14T03:11:11;98051.00;;;7.70
20848;BMP180;10584;50.854;12.902;2023-06-14T03:16:33;98050.00;;;7.70
20848;BMP180;10584;50.854;12.902;2023-06-14T03:21:54;98055.00;;;7.60
20848;BMP180;10584;50.854;12.902;2023-06-14T03:27:20;98067.00;;;7.60
20848;BMP180;10584;50.854;12.902;2023-06-14T03:32:42;98074.00;;;7.60
20848;BMP180;10584;50.854;12.902;2023-06-14T03:38:04;98085.00;;;7.60
20848;BMP180;10584;50.854;12.902;2023-06-14T03:43:27;98083.00;;;7.60
20848;BMP180;10584;50.854;12.902;2023-06-14T03:48:48;98090.00;;;7.60
20848;BMP180;10584;50.854;12.902;2023-06-14T03:54:11;98095.00;;;7.70
20848;BMP180;10584;50.854;12.902;2023-06-14T03:59:53;98091.00;;;7.70
20848;BMP180;10584;50.854;12.902;2023-06-14T04:05:16;98102.00;;;7.80
20848;BMP180;10584;50.854;12.902;2023-06-14T04:10:42;98114.00;;;7.90
20848;BMP180;10584;50.854;12.902;2023-06-14T04:16:04;98109.00;;;8.10
20848;BMP180;10584;50.854;12.902;2023-06-14T04:21:28;98123.00;;;8.30
20848;BMP180;10584;50.854;12.902;2023-06-14T04:26:53;98116.00;;;8.50
20848;BMP180;10584;50.854;12.902;2023-06-14T04:32:15;98117.00;;;8.90
20848;BMP180;10584;50.854;12.902;2023-06-14T04:37:36;98115.00;;;9.20
20848;BMP180;10584;50.854;12.902;2023-06-14T04:43:03;98124.00;;;9.50
20848;BMP180;10584;50.854;12.902;2023-06-14T04:48:28;98131.00;;;9.90
20848;BMP180;10584;50.854;12.902;2023-06-14T04:53:49;98118.00;;;10.20
20848;BMP180;10584;50.854;12.902;2023-06-14T04:59:12;98125.00;;;10.40
20848;BMP180;10584;50.854;12.902;2023-06-14T05:04:35;98132.00;;;10.50
20848;BMP180;10584;50.854;12.902;2023-06-14T05:10:01;98127.00;;;10.70
20848;BMP180;10584;50.854;12.902;2023-06-14T05:15:23;98128.00;;;11.00
20848;BMP180;10584;50.854;12.902;2023-06-14T05:20:46;98136.00;;;11.30
20848;BMP180;10584;50.854;12.902;2023-06-14T05:26:08;98135.00;;;11.60
20848;BMP180;10584;50.854;12.902;2023-06-14T05:31:30;98144.00;;;11.90
20848;BMP180;10584;50.854;12.902;2023-06-14T05:36:52;98142.00;;;12.10
20848;BMP180;10584;50.854;12.902;2023-06-14T05:42:13;98144.00;;;12.50
20848;BMP180;10584;50.854;12.902;2023-06-14T05:47:35;98154.00;;;12.70
20848;BMP180;10584;50.854;12.902;2023-06-14T05:52:57;98157.00;;;13.00
20848;BMP180;10584;50.854;12.902;2023-06-14T05:58:18;98152.00;;;13.20
20848;BMP180;10584;50.854;12.902;2023-06-14T06:03:42;98162.00;;;13.40
20848;BMP180;10584;50.854;12.902;2023-06-14T06:09:07;98167.00;;;13.60
20848;BMP180;10584;50.854;12.902;2023-06-14T06:14:29;98171.00;;;13.80
20848;BMP180;10584;50.854;12.902;2023-06-14T06:19:51;98169.00;;;14.00
20848;BMP180;10584;50.854;12.902;2023-06-14T06:25:12;98164.00;;;14.00
20848;BMP180;10584;50.854;12.902;2023-06-14T06:30:36;98168.00;;;14.20
20848;BMP180;10584;50.854;12.902;2023-06-14T06:35:57;98174.00;;;14.60
20848;BMP180;10584;50.854;12.902;2023-06-14T06:41:19;98177.00;;;14.90
20848;BMP180;10584;50.854;12.902;2023-06-14T06:46:41;98180.00;;;14.90
20848;BMP180;10584;50.854;12.902;2023-06-14T06:52:05;98188.00;;;15.30
20848;BMP180;10584;50.854;12.902;2023-06-14T06:57:27;98185.00;;;15.30
20848;BMP180;10584;50.854;12.902;2023-06-14T07:02:50;98193.00;;;15.50
20848;BMP180;10584;50.854;12.902;2023-06-14T07:08:12;98190.00;;;15.70
20848;BMP180;10584;50.854;12.902;2023-06-14T07:13:34;98197.00;;;16.00
20848;BMP180;10584;50.854;12.902;2023-06-14T07:18:56;98204.00;;;16.30
20848;BMP180;10584;50.854;12.902;2023-06-14T07:24:17;98201.00;;;16.40
20848;BMP180;10584;50.854;12.902;2023-06-14T07:29:39;98205.00;;;16.60
20848;BMP180;10584;50.854;12.902;2023-06-14T07:35:00;98215.00;;;16.80
20848;BMP180;10584;50.854;12.902;2023-06-14T07:40:22;98210.00;;;17.00
20848;BMP180;10584;50.854;12.902;2023-06-14T07:45:44;98214.00;;;17.20
20848;BMP180;10584;50.854;12.902;2023-06-14T07:51:22;98221.00;;;17.40
20848;BMP180;10584;50.854;12.902;2023-06-14T07:56:44;98216.00;;;17.70
20848;BMP180;10584;50.854;12.902;2023-06-14T08:02:06;98212.00;;;18.00
20848;BMP180;10584;50.854;12.902;2023-06-14T08:07:27;98218.00;;;18.00
20848;BMP180;10584;50.854;12.902;2023-06-14T08:12:49;98217.00;;;18.20
20848;BMP180;10584;50.854;12.902;2023-06-14T08:18:14;98213.00;;;18.40
20848;BMP180;10584;50.854;12.902;2023-06-14T08:23:36;98221.00;;;18.70
20848;BMP180;10584;50.854;12.902;2023-06-14T08:28:58;98224.00;;;18.90
20848;BMP180;10584;50.854;12.902;2023-06-14T08:34:19;98218.00;;;18.90
20848;BMP180;10584;50.854;12.902;2023-06-14T08:39:41;98217.00;;;18.80
20848;BMP180;10584;50.854;12.902;2023-06-14T08:45:06;98209.00;;;19.00
20848;BMP180;10584;50.854;12.902;2023-06-14T08:50:28;98214.00;;;19.30
20848;BMP180;10584;50.854;12.902;2023-06-14T08:55:55;98230.00;;;19.40
20848;BMP180;10584;50.854;12.902;2023-06-14T09:01:16;98219.00;;;19.30
20848;BMP180;10584;50.854;12.902;2023-06-14T09:06:39;98237.00;;;19.40
20848;BMP180;10584;50.854;12.902;2023-06-14T09:12:02;98234.00;;;19.60
20848;BMP180;10584;50.854;12.902;2023-06-14T09:17:23;98231.00;;;19.60
20848;BMP180;10584;50.854;12.902;2023-06-14T09:22:46;98248.00;;;20.00
20848;BMP180;10584;50.854;12.902;2023-06-14T09:28:08;98240.00;;;20.30
20848;BMP180;10584;50.854;12.902;2023-06-14T09:33:31;98239.00;;;20.30
20848;BMP180;10584;50.854;12.902;2023-06-14T09:39:03;98248.00;;;20.40
20848;BMP180;10584;50.854;12.902;2023-06-14T09:44:28;98240.00;;;20.40
20848;BMP180;10584;50.854;12.902;2023-06-14T09:49:51;98248.00;;;20.70
20848;BMP180;10584;50.854;12.902;2023-06-14T09:55:15;98242.00;;;20.50
20848;BMP180;10584;50.854;12.902;2023-06-14T10:00:39;98248.00;;;20.60
20848;BMP180;10584;50.854;12.902;2023-06-14T10:06:03;98246.00;;;20.80
20848;BMP180;10584;50.854;12.902;2023-06-14T10:11:27;98250.00;;;20.80
20848;BMP180;10584;50.854;12.902;2023-06-14T10:17:12;98249.00;;;20.80
20848;BMP180;10584;50.854;12.902;2023-06-14T10:23:16;98255.00;;;21.30
20848;BMP180;10584;50.854;12.902;2023-06-14T10:28:38;98247.00;;;21.00
20848;BMP180;10584;50.854;12.902;2023-06-14T10:34:00;98258.00;;;21.30
20848;BMP180;10584;50.854;12.902;2023-06-14T10:39:21;98245.00;;;21.20
20848;BMP180;10584;50.854;12.902;2023-06-14T10:44:51;98245.00;;;21.10
20848;BMP180;10584;50.854;12.902;2023-06-14T10:50:13;98249.00;;;20.90
20848;BMP180;10584;50.854;12.902;2023-06-14T10:55:36;98252.00;;;20.90
20848;BMP180;10584;50.854;12.902;2023-06-14T11:00:57;98245.00;;;21.00
20848;BMP180;10584;50.854;12.902;2023-06-14T11:06:22;98243.00;;;21.00
20848;BMP180;10584;50.854;12.902;2023-06-14T11:11:49;98223.00;;;21.10
20848;BMP180;10584;50.854;12.902;2023-06-14T11:17:13;98224.00;;;21.40
20848;BMP180;10584;50.854;12.902;2023-06-14T11:22:44;98231.00;;;21.90
20848;BMP180;10584;50.854;12.902;2023-06-14T11:28:06;98230.00;;;22.00
20848;BMP180;10584;50.854;12.902;2023-06-14T11:33:27;98235.00;;;22.00
20848;BMP180;10584;50.854;12.902;2023-06-14T11:38:49;98234.00;;;21.80
20848;BMP180;10584;50.854;12.902;2023-06-14T11:44:12;98229.00;;;21.60
20848;BMP180;10584;50.854;12.902;2023-06-14T11:49:37;98224.00;;;21.40
20848;BMP180;10584;50.854;12.902;2023-06-14T11:54:58;98227.00;;;21.50
20848;BMP180;10584;50.854;12.902;2023-06-14T12:00:25;98227.00;;;21.90
20848;BMP180;10584;50.854;12.902;2023-06-14T12:05:46;98212.00;;;21.90
20848;BMP180;10584;50.854;12.902;2023-06-14T12:11:12;98208.00;;;21.90
20848;BMP180;10584;50.854;12.902;2023-06-14T12:16:36;98215.00;;;22.40
20848;BMP180;10584;50.854;12.902;2023-06-14T12:22:00;98217.00;;;22.70
20848;BMP180;10584;50.854;12.902;2023-06-14T12:27:22;98214.00;;;22.70
20848;BMP180;10584;50.854;12.902;2023-06-14T12:32:45;98231.00;;;22.10
20848;BMP180;10584;50.854;12.902;2023-06-14T12:38:07;98215.00;;;22.00
20848;BMP180;10584;50.854;12.902;2023-06-14T12:43:28;98216.00;;;22.40
20848;BMP180;10584;50.854;12.902;2023-06-14T12:48:50;98225.00;;;22.50
20848;BMP180;10584;50.854;12.902;2023-06-14T12:54:11;98233.00;;;22.60
20848;BMP180;10584;50.854;12.902;2023-06-14T12:59:33;98227.00;;;22.90
20848;BMP180;10584;50.854;12.902;2023-06-14T13:04:55;98232.00;;;22.70
20848;BMP180;10584;50.854;12.902;2023-06-14T13:10:18;98234.00;;;22.30
20848;BMP180;10584;50.854;12.902;2023-06-14T13:15:40;98223.00;;;22.30
20848;BMP180;10584;50.854;12.902;2023-06-14T13:21:01;98218.00;;;22.50
20848;BMP180;10584;50.854;12.902;2023-06-14T13:26:23;98239.00;;;22.10
20848;BMP180;10584;50.854;12.902;2023-06-14T13:31:44;98236.00;;;22.20
20848;BMP180;10584;50.854;12.902;2023-06-14T13:37:07;98224.00;;;22.60
20848;BMP180;10584;50.854;12.902;2023-06-14T13:42:28;98228.00;;;22.50
20848;BMP180;10584;50.854;12.902;2023-06-14T13:47:52;98239.00;;;22.60
20848;BMP180;10584;50.854;12.902;2023-06-14T13:53:15;98238.00;;;22.00
20848;BMP180;10584;50.854;12.902;2023-06-14T13:58:38;98238.00;;;21.60
20848;BMP180;10584;50.854;12.902;2023-06-14T14:03:59;98238.00;;;21.60
20848;BMP180;10584;50.854;12.902;2023-06-14T14:09:21;98241.00;;;21.70
20848;BMP180;10584;50.854;12.902;2023-06-14T14:14:43;98225.00;;;21.90
20848;BMP180;10584;50.854;12.902;2023-06-14T14:20:05;98228.00;;;22.10
20848;BMP180;10584;50.854;12.902;2023-06-14T14:25:27;98225.00;;;22.10
20848;BMP180;10584;50.854;12.902;2023-06-14T14:30:48;98217.00;;;22.10
20848;BMP180;10584;50.854;12.902;2023-06-14T14:36:10;98221.00;;;22.40
20848;BMP180;10584;50.854;12.902;2023-06-14T14:41:31;98222.00;;;22.60
20848;BMP180;10584;50.854;12.902;2023-06-14T14:46:54;98232.00;;;22.80
20848;BMP180;10584;50.854;12.902;2023-06-14T14:52:16;98233.00;;;22.50
20848;BMP180;10584;50.854;12.902;2023-06-14T14:57:46;98227.00;;;22.40
20848;BMP180;10584;50.854;12.902;2023-06-14T15:03:08;98226.00;;;22.60
20848;BMP180;10584;50.854;12.902;2023-06-14T15:08:30;98224.00;;;22.70
20848;BMP180;10584;50.854;12.902;2023-06-14T15:13:51;98223.00;;;22.30
20848;BMP180;10584;50.854;12.902;2023-06-14T15:19:13;98220.00;;;22.40
20848;BMP180;10584;50.854;12.902;2023-06-14T15:24:34;98227.00;;;22.50
20848;BMP180;10584;50.854;12.902;2023-06-14T15:30:04;98225.00;;;22.30
20848;BMP180;10584;50.854;12.902;2023-06-14T15:35:26;98229.00;;;21.90
20848;BMP180;10584;50.854;12.902;2023-06-14T15:40:47;98227.00;;;21.70
20848;BMP180;10584;50.854;12.902;2023-06-14T15:46:12;98219.00;;;21.70
20848;BMP180;10584;50.854;12.902;2023-06-14T15:51:33;98222.00;;;21.80
20848;BMP180;10584;50.854;12.902;2023-06-14T15:56:55;98219.00;;;21.90
20848;BMP180;10584;50.854;12.902;2023-06-14T16:02:17;98209.00;;;22.00
20848;BMP180;10584;50.854;12.902;2023-06-14T16:07:38;98207.00;;;22.10
20848;BMP180;10584;50.854;12.902;2023-06-14T16:13:00;98201.00;;;22.00
20848;BMP180;10584;50.854;12.902;2023-06-14T16:18:21;98207.00;;;22.10
20848;BMP180;10584;50.854;12.902;2023-06-14T16:23:43;98213.00;;;22.20
20848;BMP180;10584;50.854;12.902;2023-06-14T16:29:04;98207.00;;;21.90
20848;BMP180;10584;50.854;12.902;2023-06-14T16:34:26;98208.00;;;21.90
20848;BMP180;10584;50.854;12.902;2023-06-14T16:39:47;98211.00;;;21.90
20848;BMP180;10584;50.854;12.902;2023-06-14T16:45:09;98202.00;;;21.60
20848;BMP180;10584;50.854;12.902;2023-06-14T16:50:31;98211.00;;;21.70
20848;BMP180;10584;50.854;12.902;2023-06-14T16:55:59;98205.00;;;21.50
20848;BMP180;10584;50.854;12.902;2023-06-14T17:01:22;98203.00;;;21.60
20848;BMP180;10584;50.854;12.902;2023-06-14T17:06:43;98215.00;;;21.60
20848;BMP180;10584;50.854;12.902;2023-06-14T17:12:07;98227.00;;;21.30
20848;BMP180;10584;50.854;12.902;2023-06-14T17:17:29;98231.00;;;21.00
20848;BMP180;10584;50.854;12.902;2023-06-14T17:22:50;98231.00;;;21.00
20848;BMP180;10584;50.854;12.902;2023-06-14T17:28:12;98236.00;;;21.10
20848;BMP180;10584;50.854;12.902;2023-06-14T17:33:33;98242.00;;;20.80
20848;BMP180;10584;50.854;12.902;2023-06-14T17:38:56;98244.00;;;20.60
20848;BMP180;10584;50.854;12.902;2023-06-14T17:44:17;98255.00;;;20.60
20848;BMP180;10584;50.854;12.902;2023-06-14T17:49:38;98244.00;;;20.60
20848;BMP180;10584;50.854;12.902;2023-06-14T17:55:01;98247.00;;;20.70
20848;BMP180;10584;50.854;12.902;2023-06-14T18:00:22;98246.00;;;20.80
20848;BMP180;10584;50.854;12.902;2023-06-14T18:05:44;98248.00;;;20.70
20848;BMP180;10584;50.854;12.902;2023-06-14T18:11:05;98255.00;;;20.80
20848;BMP180;10584;50.854;12.902;2023-06-14T18:16:28;98252.00;;;20.60
20848;BMP180;10584;50.854;12.902;2023-06-14T18:21:50;98256.00;;;20.60
20848;BMP180;10584;50.854;12.902;2023-06-14T18:27:12;98256.00;;;20.50
20848;BMP180;10584;50.854;12.902;2023-06-14T18:32:33;98263.00;;;20.40
20848;BMP180;10584;50.854;12.902;2023-06-14T18:37:56;98265.00;;;20.20
20848;BMP180;10584;50.854;12.902;2023-06-14T18:43:18;98268.00;;;19.90
20848;BMP180;10584;50.854;12.902;2023-06-14T18:48:40;98269.00;;;19.60
20848;BMP180;10584;50.854;12.902;2023-06-14T18:54:05;98274.00;;;19.30
20848;BMP180;10584;50.854;12.902;2023-06-14T18:59:26;98268.00;;;19.00
20848;BMP180;10584;50.854;12.902;2023-06-14T19:04:48;98267.00;;;18.80
20848;BMP180;10584;50.854;12.902;2023-06-14T19:10:10;98269.00;;;18.50
20848;BMP180;10584;50.854;12.902;2023-06-14T19:15:32;98288.00;;;18.20
20848;BMP180;10584;50.854;12.902;2023-06-14T19:20:53;98292.00;;;18.00
20848;BMP180;10584;50.854;12.902;2023-06-14T19:26:15;98286.00;;;17.70
20848;BMP180;10584;50.854;12.902;2023-06-14T19:31:37;98299.00;;;17.40
20848;BMP180;10584;50.854;12.902;2023-06-14T19:36:58;98303.00;;;17.10
20848;BMP180;10584;50.854;12.902;2023-06-14T19:42:20;98303.00;;;16.80
20848;BMP180;10584;50.854;12.902;2023-06-14T19:47:41;98310.00;;;16.60
20848;BMP180;10584;50.854;12.902;2023-06-14T19:53:05;98311.00;;;16.40
20848;BMP180;10584;50.854;12.902;2023-06-14T19:58:26;98315.00;;;16.10
20848;BMP180;10584;50.854;12.902;2023-06-14T20:03:48;98313.00;;;15.90
20848;BMP180;10584;50.854;12.902;2023-06-14T20:09:10;98315.00;;;15.70
20848;BMP180;10584;50.854;12.902;2023-06-14T20:14:38;98315.00;;;15.50
20848;BMP180;10584;50.854;12.902;2023-06-14T20:20:01;98310.00;;;15.30
20848;BMP180;10584;50.854;12.902;2023-06-14T20:25:22;98315.00;;;15.10
20848;BMP180;10584;50.854;12.902;2023-06-14T20:30:44;98312.00;;;14.90
20848;BMP180;10584;50.854;12.902;2023-06-14T20:36:05;98316.00;;;14.70
20848;BMP180;10584;50.854;12.902;2023-06-14T20:41:27;98301.00;;;14.50
20848;BMP180;10584;50.854;12.902;2023-06-14T20:46:48;98310.00;;;14.40
20848;BMP180;10584;50.854;12.902;2023-06-14T20:52:10;98306.00;;;14.30
20848;BMP180;10584;50.854;12.902;2023-06-14T20:57:32;98314.00;;;14.10
20848;BMP180;10584;50.854;12.902;2023-06-14T21:02:54;98317.00;;;14.00
20848;BMP180;10584;50.854;12.902;2023-06-14T21:08:18;98308.00;;;13.90
20848;BMP180;10584;50.854;12.902;2023-06-14T21:13:39;98299.00;;;13.80
20848;BMP180;10584;50.854;12.902;2023-06-14T21:19:01;98306.00;;;13.60
20848;BMP180;10584;50.854;12.902;2023-06-14T21:24:22;98308.00;;;13.50
20848;BMP180;10584;50.854;12.902;2023-06-14T21:29:44;98313.00;;;13.40
20848;BMP180;10584;50.854;12.902;2023-06-14T21:35:06;98310.00;;;13.20
20848;BMP180;10584;50.854;12.902;2023-06-14T21:40:28;98316.00;;;13.10
20848;BMP180;10584;50.854;12.902;2023-06-14T21:45:49;98312.00;;;13.00
20848;BMP180;10584;50.854;12.902;2023-06-14T21:51:11;98312.00;;;12.90
20848;BMP180;10584;50.854;12.902;2023-06-14T21:56:32;98313.00;;;12.80
20848;BMP180;10584;50.854;12.902;2023-06-14T22:01:54;98300.00;;;12.70
20848;BMP180;10584;50.854;12.902;2023-06-14T22:07:15;98310.00;;;12.50
20848;BMP180;10584;50.854;12.902;2023-06-14T22:12:38;98307.00;;;12.40
20848;BMP180;10584;50.854;12.902;2023-06-14T22:18:00;98306.00;;;12.30
20848;BMP180;10584;50.854;12.902;2023-06-14T22:23:22;98303.00;;;12.20
20848;BMP180;10584;50.854;12.902;2023-06-14T22:28:47;98303.00;;;12.10
20848;BMP180;10584;50.854;12.902;2023-06-14T22:34:10;98313.00;;;12.00
20848;BMP180;10584;50.854;12.902;2023-06-14T22:39:31;98315.00;;;11.80
20848;BMP180;10584;50.854;12.902;2023-06-14T22:44:53;98326.00;;;11.70
20848;BMP180;10584;50.854;12.902;2023-06-14T22:50:15;98326.00;;;11.60
20848;BMP180;10584;50.854;12.902;2023-06-14T22:55:36;98319.00;;;11.50
20848;BMP180;10584;50.854;12.902;2023-06-14T23:00:58;98311.00;;;11.50
20848;BMP180;10584;50.854;12.902;2023-06-14T23:06:20;98309.00;;;11.40
20848;BMP180;10584;50.854;12.902;2023-06-14T23:11:47;98314.00;;;11.40
20848;BMP180;10584;50.854;12.902;2023-06-14T23:17:08;98312.00;;;11.30
20848;BMP180;10584;50.854;12.902;2023-06-14T23:22:30;98301.00;;;11.20
20848;BMP180;10584;50.854;12.902;2023-06-14T23:27:56;98299.00;;;11.10
20848;BMP180;10584;50.854;12.902;2023-06-14T23:33:18;98291.00;;;11.00
20848;BMP180;10584;50.854;12.902;2023-06-14T23:38:39;98301.00;;;10.90
20848;BMP180;10584;50.854;12.902;2023-06-14T23:44:06;98300.00;;;10.80
20848;BMP180;10584;50.854;12.902;2023-06-14T23:49:28;98303.00;;;10.80
20848;BMP180;10584;50.854;12.902;2023-06-14T23:54:49;98292.00;;;10.70
